Time;durP1;ratioP1;P1;durP2;ratioP2;P2;SDS_P1;SDS_P2;PMS_P1;PMS_P2;Temp;Humidity;BMP_temperature;BMP_pressure;BME280_temperature;BME280_humidity;BME280_pressure;Samples;Min_cycle;Max_cycle;Signal;HPM_P1;HPM_P2
2022/03/30 00:01:02;;;;;;;12.60;7.50;;;11.20;99.90;;;;;;4996720;28;20046;-66
2022/03/30 00:03:29;;;;;;;16.30;9.18;;;11.30;99.90;;;;;;5010285;28;20456;-65
2022/03/30 00:05:57;;;;;;;13.10;8.52;;;11.30;99.90;;;;;;4996628;28;20086;-65
2022/03/30 00:08:24;;;;;;;14.23;9.20;;;11.30;99.90;;;;;;4999774;28;20121;-67
2022/03/30 00:10:52;;;;;;;16.77;9.05;;;11.30;99.90;;;;;;4993791;28;20056;-67
2022/03/30 00:13:20;;;;;;;13.93;8.48;;;11.20;99.90;;;;;;4998451;28;20050;-65
2022/03/30 00:15:47;;;;;;;16.73;9.55;;;11.10;99.90;;;;;;4990998;28;20417;-66
2022/03/30 00:18:15;;;;;;;16.00;9.85;;;11.10;99.90;;;;;;4989872;28;20134;-65
2022/03/30 00:20:43;;;;;;;18.90;10.55;;;11.00;99.90;;;;;;4996074;28;20435;-66
2022/03/30 00:23:11;;;;;;;15.50;10.20;;;11.00;99.90;;;;;;5004508;28;20153;-66
2022/03/30 00:25:39;;;;;;;17.25;10.80;;;10.90;99.90;;;;;;4998271;28;20486;-66
2022/03/30 00:28:08;;;;;;;20.13;12.20;;;10.90;99.90;;;;;;4999920;28;20074;-66
2022/03/30 00:30:35;;;;;;;21.58;12.18;;;10.90;99.90;;;;;;5009071;28;20050;-66
2022/03/30 00:33:02;;;;;;;17.95;12.10;;;10.90;99.90;;;;;;4999321;28;20053;-66
2022/03/30 00:35:30;;;;;;;20.48;12.88;;;10.80;99.90;;;;;;4999821;28;20065;-66
2022/03/30 00:37:58;;;;;;;20.77;13.05;;;10.80;99.90;;;;;;4998876;28;20054;-67
2022/03/30 00:40:26;;;;;;;20.75;12.70;;;10.80;99.90;;;;;;4999845;28;20425;-66
2022/03/30 00:42:53;;;;;;;20.70;12.80;;;10.80;99.90;;;;;;4997640;28;20042;-66
2022/03/30 00:45:23;;;;;;;20.50;12.75;;;10.80;99.90;;;;;;5010423;28;20061;-65
2022/03/30 00:47:52;;;;;;;21.23;12.60;;;10.80;99.90;;;;;;4996272;28;20458;-66
2022/03/30 00:50:21;;;;;;;18.58;12.23;;;10.80;99.90;;;;;;4999631;28;20064;-66
2022/03/30 00:52:53;;;;;;;23.02;13.18;;;10.70;99.90;;;;;;4996372;28;20540;-66
2022/03/30 00:55:21;;;;;;;19.08;12.57;;;10.70;99.90;;;;;;4997882;28;20122;-66
2022/03/30 00:57:51;;;;;;;18.52;12.02;;;10.70;99.90;;;;;;4998035;28;20470;-66
2022/03/30 01:00:19;;;;;;;19.75;12.70;;;10.60;99.90;;;;;;4997135;28;20046;-66
2022/03/30 01:02:48;;;;;;;21.73;14.15;;;10.60;99.90;;;;;;4997838;28;20121;-66
2022/03/30 01:05:16;;;;;;;24.15;14.35;;;10.60;99.90;;;;;;4996481;28;20545;-66
2022/03/30 01:07:44;;;;;;;21.52;14.32;;;10.60;99.90;;;;;;5005434;28;20066;-66
2022/03/30 01:10:13;;;;;;;21.52;13.48;;;10.60;99.90;;;;;;5001166;28;20054;-66
2022/03/30 01:12:41;;;;;;;25.15;15.05;;;10.50;99.90;;;;;;4995822;28;20046;-66
2022/03/30 01:15:10;;;;;;;23.15;13.90;;;10.40;99.90;;;;;;4995779;28;20038;-66
2022/03/30 01:17:37;;;;;;;28.58;15.00;;;10.30;99.90;;;;;;4996296;28;20515;-66
2022/03/30 01:20:06;;;;;;;20.85;13.88;;;10.30;99.90;;;;;;5009666;28;20054;-65
2022/03/30 01:22:33;;;;;;;22.50;14.77;;;10.20;99.90;;;;;;4995868;28;20056;-66
2022/03/30 01:25:02;;;;;;;22.58;14.98;;;10.10;99.90;;;;;;4999827;28;20046;-66
2022/03/30 01:27:30;;;;;;;25.92;15.63;;;10.10;99.90;;;;;;4996218;28;20403;-66
2022/03/30 01:32:43;;;;;;;26.98;16.30;;;10.10;99.90;;;;;;4994992;28;20042;-67
2022/03/30 01:35:10;;;;;;;25.13;14.90;;;10.10;99.90;;;;;;4995269;28;20038;-67
2022/03/30 01:37:38;;;;;;;21.42;14.70;;;10.10;99.90;;;;;;4993292;28;20073;-67
2022/03/30 01:40:07;;;;;;;25.90;15.55;;;10.10;99.90;;;;;;4997119;28;20072;-66
2022/03/30 01:42:35;;;;;;;24.45;15.85;;;10.10;99.90;;;;;;4996590;28;20462;-66
2022/03/30 01:45:03;;;;;;;25.15;14.75;;;10.10;99.90;;;;;;4993093;28;20050;-66
2022/03/30 01:47:31;;;;;;;24.30;15.38;;;10.10;99.90;;;;;;4994136;28;20390;-66
2022/03/30 01:49:58;;;;;;;29.33;16.38;;;10.20;99.90;;;;;;4993822;28;20485;-66
2022/03/30 01:52:25;;;;;;;25.30;15.52;;;10.20;99.90;;;;;;4986141;28;20054;-65
2022/03/30 01:54:53;;;;;;;28.58;17.00;;;10.20;99.90;;;;;;4992847;28;20577;-67
2022/03/30 01:57:20;;;;;;;27.10;16.17;;;10.20;99.90;;;;;;4992511;28;20046;-67
2022/03/30 01:59:48;;;;;;;27.63;16.83;;;10.30;99.90;;;;;;5002658;28;20064;-66
2022/03/30 02:02:15;;;;;;;30.98;16.90;;;10.30;99.90;;;;;;5001538;28;20431;-67
2022/03/30 02:04:44;;;;;;;23.85;15.80;;;10.30;99.90;;;;;;4990454;28;20042;-67
2022/03/30 02:07:11;;;;;;;25.55;16.63;;;10.30;99.90;;;;;;4996193;28;20470;-67
2022/03/30 02:09:39;;;;;;;28.13;15.73;;;10.30;99.90;;;;;;4991931;28;20054;-67
2022/03/30 02:12:07;;;;;;;29.88;16.23;;;10.30;99.90;;;;;;4991723;28;20457;-66
2022/03/30 02:14:34;;;;;;;25.00;15.93;;;10.30;99.90;;;;;;4992643;28;20050;-66
2022/03/30 02:17:02;;;;;;;25.25;15.77;;;10.30;99.90;;;;;;4992330;28;20562;-66
2022/03/30 02:19:29;;;;;;;25.98;15.80;;;10.30;99.90;;;;;;4991873;28;20130;-67
2022/03/30 02:21:56;;;;;;;25.63;15.80;;;10.30;99.90;;;;;;4992234;28;20038;-67
2022/03/30 02:24:24;;;;;;;27.45;15.23;;;10.40;99.90;;;;;;4991432;28;20568;-66
2022/03/30 02:26:52;;;;;;;24.60;15.45;;;10.40;99.90;;;;;;4991902;28;20038;-66
2022/03/30 02:29:19;;;;;;;23.70;16.38;;;10.40;99.90;;;;;;4990816;28;20069;-65
2022/03/30 02:31:48;;;;;;;26.05;15.07;;;10.30;99.90;;;;;;4989209;28;20031;-66
2022/03/30 02:34:16;;;;;;;23.77;14.88;;;10.40;99.90;;;;;;4993042;28;20034;-65
2022/03/30 02:36:45;;;;;;;24.75;16.00;;;10.30;99.90;;;;;;4991593;28;20042;-66
2022/03/30 02:39:14;;;;;;;24.13;15.30;;;10.30;99.90;;;;;;4995797;28;20042;-66
2022/03/30 02:41:42;;;;;;;27.45;16.27;;;10.30;99.90;;;;;;4989973;28;20410;-66
2022/03/30 02:44:09;;;;;;;24.00;15.48;;;10.30;99.90;;;;;;4991771;28;20525;-66
2022/03/30 02:46:36;;;;;;;27.35;16.65;;;10.30;99.90;;;;;;4990620;28;20134;-66
2022/03/30 02:49:04;;;;;;;29.85;15.98;;;10.20;99.90;;;;;;4990630;28;20043;-66
2022/03/30 02:51:32;;;;;;;28.00;15.90;;;10.30;99.90;;;;;;4991166;28;20050;-67
2022/03/30 02:53:59;;;;;;;26.27;15.85;;;10.30;99.90;;;;;;4990117;28;20056;-66
2022/03/30 02:56:26;;;;;;;27.88;16.20;;;10.30;99.90;;;;;;4990472;28;20052;-66
2022/03/30 02:58:54;;;;;;;22.02;15.05;;;10.40;99.90;;;;;;4993255;28;20137;-66
2022/03/30 03:01:21;;;;;;;26.50;15.25;;;10.40;99.90;;;;;;4999795;28;20509;-66
2022/03/30 03:03:49;;;;;;;27.13;16.48;;;10.30;99.90;;;;;;4991809;28;20557;-66
2022/03/30 03:06:17;;;;;;;29.90;16.60;;;10.40;99.90;;;;;;4998772;28;20497;-66
2022/03/30 03:08:44;;;;;;;26.30;15.80;;;10.30;99.90;;;;;;4991288;28;20038;-67
2022/03/30 03:11:11;;;;;;;32.22;16.85;;;10.30;99.90;;;;;;4991142;28;20073;-66
2022/03/30 03:13:38;;;;;;;25.05;15.57;;;10.30;99.90;;;;;;4989904;28;20497;-66
2022/03/30 03:16:06;;;;;;;29.23;16.33;;;10.30;99.90;;;;;;4990078;28;20420;-66
2022/03/30 03:18:35;;;;;;;25.55;15.50;;;10.30;99.90;;;;;;4995167;28;20101;-65
2022/03/30 03:21:02;;;;;;;27.88;17.42;;;10.30;99.90;;;;;;4989426;28;20391;-66
2022/03/30 03:23:29;;;;;;;29.25;15.77;;;10.30;99.90;;;;;;4990133;28;20372;-66
2022/03/30 03:25:57;;;;;;;28.15;15.90;;;10.30;99.90;;;;;;4989110;28;20073;-66
2022/03/30 03:28:24;;;;;;;27.77;17.25;;;10.30;99.90;;;;;;4989455;28;20399;-66
2022/03/30 03:30:52;;;;;;;30.80;17.88;;;10.30;99.90;;;;;;4991105;28;20494;-67
2022/03/30 03:33:19;;;;;;;26.60;17.30;;;10.30;99.90;;;;;;4990197;28;20385;-65
2022/03/30 03:35:47;;;;;;;29.35;16.50;;;10.30;99.90;;;;;;4990369;28;20433;-66
2022/03/30 03:38:14;;;;;;;24.40;16.95;;;10.40;99.90;;;;;;4989807;28;20535;-65
2022/03/30 03:40:42;;;;;;;28.30;16.17;;;10.40;99.90;;;;;;4989097;28;20050;-66
2022/03/30 03:43:09;;;;;;;26.00;15.57;;;10.40;99.90;;;;;;4990113;28;20509;-66
2022/03/30 03:45:37;;;;;;;31.05;17.20;;;10.40;99.90;;;;;;4993464;28;20046;-66
2022/03/30 03:48:05;;;;;;;28.50;16.33;;;10.40;99.90;;;;;;4990122;28;20050;-66
2022/03/30 03:50:33;;;;;;;25.23;16.08;;;10.40;99.90;;;;;;4988125;28;20060;-66
2022/03/30 03:53:01;;;;;;;29.90;16.60;;;10.40;99.90;;;;;;4991217;28;20568;-66
2022/03/30 03:55:31;;;;;;;25.38;15.57;;;10.30;99.90;;;;;;4990720;28;20121;-66
2022/03/30 03:58:00;;;;;;;30.13;15.98;;;10.30;99.90;;;;;;4991698;28;20050;-66
2022/03/30 04:00:28;;;;;;;26.00;16.02;;;10.30;99.90;;;;;;5002666;28;20477;-66
2022/03/30 04:02:55;;;;;;;26.58;15.52;;;10.20;99.90;;;;;;4988175;28;20069;-66
2022/03/30 04:05:22;;;;;;;31.55;17.50;;;10.20;99.90;;;;;;4988205;28;20236;-65
2022/03/30 04:07:50;;;;;;;30.38;17.77;;;10.20;99.90;;;;;;4988146;28;20049;-66
2022/03/30 04:10:18;;;;;;;26.13;15.80;;;10.20;99.90;;;;;;4988085;28;20132;-67
2022/03/30 04:12:45;;;;;;;29.08;15.98;;;10.10;99.90;;;;;;4989063;28;20383;-66
2022/03/30 04:15:12;;;;;;;25.75;15.43;;;10.20;99.90;;;;;;4990208;28;20050;-65
2022/03/30 04:17:47;;;;;;;30.00;17.00;;;10.10;99.90;;;;;;4987506;28;20453;-67
2022/03/30 04:20:15;;;;;;;27.35;16.60;;;10.20;99.90;;;;;;4987481;28;20100;-66
2022/03/30 04:22:43;;;;;;;26.83;16.15;;;10.10;99.90;;;;;;4991256;28;20050;-66
2022/03/30 04:25:11;;;;;;;29.13;16.42;;;10.10;99.90;;;;;;4990161;28;20061;-67
2022/03/30 04:27:51;;;;;;;29.45;16.67;;;10.10;99.90;;;;;;4990333;28;20069;-67
2022/03/30 04:30:20;;;;;;;26.35;15.43;;;10.20;99.90;;;;;;4993330;28;20038;-65
2022/03/30 04:32:48;;;;;;;24.23;15.13;;;10.20;99.90;;;;;;4988917;28;20117;-66
2022/03/30 04:35:18;;;;;;;26.25;15.50;;;10.20;99.90;;;;;;5000631;28;20626;-66
2022/03/30 04:37:45;;;;;;;24.75;15.32;;;10.20;99.90;;;;;;4987367;28;20050;-66
2022/03/30 04:40:13;;;;;;;28.42;16.15;;;10.20;99.90;;;;;;4990091;28;20141;-67
2022/03/30 04:42:40;;;;;;;23.23;14.57;;;10.10;99.90;;;;;;4989536;28;20049;-68
2022/03/30 04:45:08;;;;;;;27.05;15.90;;;10.10;99.90;;;;;;4990525;28;20084;-66
2022/03/30 04:47:35;;;;;;;24.85;15.73;;;10.10;99.90;;;;;;4994070;28;20061;-65
2022/03/30 04:50:04;;;;;;;33.03;17.42;;;10.10;99.90;;;;;;4992405;28;20057;-67
2022/03/30 04:52:32;;;;;;;25.10;15.30;;;10.10;99.90;;;;;;4988955;28;20074;-65
2022/03/30 04:54:59;;;;;;;29.95;16.05;;;10.00;99.90;;;;;;4987080;28;20152;-67
2022/03/30 04:57:27;;;;;;;25.20;15.63;;;10.10;99.90;;;;;;4988422;28;20043;-67
2022/03/30 04:59:54;;;;;;;30.30;15.88;;;10.10;99.90;;;;;;4990441;28;20580;-66
2022/03/30 05:02:22;;;;;;;28.02;17.05;;;10.10;99.90;;;;;;4990232;28;20516;-66
2022/03/30 05:04:50;;;;;;;28.13;15.55;;;10.00;99.90;;;;;;4993213;28;20072;-66
2022/03/30 05:07:17;;;;;;;29.60;17.58;;;10.00;99.90;;;;;;4993190;28;20077;-66
2022/03/30 05:09:44;;;;;;;30.73;18.20;;;10.00;99.90;;;;;;4991485;28;20050;-65
2022/03/30 05:12:12;;;;;;;26.35;17.35;;;10.00;99.90;;;;;;4993901;28;20042;-67
2022/03/30 05:14:39;;;;;;;31.70;17.60;;;10.00;99.90;;;;;;4997728;28;20045;-66
2022/03/30 05:17:08;;;;;;;26.30;17.60;;;10.00;99.90;;;;;;4999113;28;20042;-67
2022/03/30 05:19:37;;;;;;;26.73;16.75;;;10.00;99.90;;;;;;5007211;28;20239;-67
2022/03/30 05:22:05;;;;;;;25.58;16.00;;;10.10;99.90;;;;;;4993932;28;20476;-67
2022/03/30 05:24:32;;;;;;;24.98;15.80;;;10.00;99.90;;;;;;5001569;28;20066;-66
2022/03/30 05:26:59;;;;;;;26.33;16.25;;;10.10;99.90;;;;;;4996175;28;20054;-67
2022/03/30 05:29:28;;;;;;;26.20;15.38;;;10.10;99.90;;;;;;4996873;28;20434;-67
2022/03/30 05:31:55;;;;;;;25.65;15.07;;;10.10;99.90;;;;;;4999289;28;20125;-66
2022/03/30 05:34:41;;;;;;;23.50;14.90;;;10.10;99.90;;;;;;4999125;28;20513;-66
2022/03/30 05:37:09;;;;;;;23.17;14.98;;;10.20;99.90;;;;;;5006827;28;20049;-66
2022/03/30 05:39:41;;;;;;;27.35;16.88;;;10.20;99.90;;;;;;4999491;28;20047;-65
2022/03/30 05:42:10;;;;;;;27.33;15.80;;;10.20;99.90;;;;;;4993052;28;20051;-66
2022/03/30 05:44:38;;;;;;;22.58;14.85;;;10.20;99.90;;;;;;4993300;28;20046;-67
2022/03/30 05:47:09;;;;;;;25.10;15.70;;;10.30;99.90;;;;;;4996826;28;20427;-66
2022/03/30 05:49:37;;;;;;;25.95;16.77;;;10.30;99.90;;;;;;4993240;28;20144;-66
2022/03/30 05:52:05;;;;;;;25.50;16.25;;;10.40;99.90;;;;;;4996689;28;20066;-66
2022/03/30 05:54:34;;;;;;;26.70;16.08;;;10.40;99.90;;;;;;4997114;28;20216;-67
2022/03/30 05:57:03;;;;;;;24.67;15.38;;;10.50;99.90;;;;;;5005775;28;20052;-66
2022/03/30 05:59:32;;;;;;;25.08;14.90;;;10.50;99.90;;;;;;5001600;28;20767;-67
2022/03/30 06:02:01;;;;;;;24.83;15.82;;;10.60;99.90;;;;;;4995678;28;20043;-67
2022/03/30 06:04:29;;;;;;;25.35;15.38;;;10.60;99.90;;;;;;4997905;28;20050;-66
2022/03/30 06:06:56;;;;;;;26.30;15.43;;;10.70;99.90;;;;;;4995748;28;20062;-67
2022/03/30 06:09:24;;;;;;;26.52;16.00;;;10.80;99.90;;;;;;4992902;28;20070;-67
2022/03/30 06:12:08;;;;;;;29.38;16.60;;;10.80;99.90;;;;;;4992558;28;20061;-66
2022/03/30 06:14:35;;;;;;;30.92;17.02;;;10.80;99.90;;;;;;4999957;28;20058;-66
2022/03/30 06:17:05;;;;;;;29.88;16.08;;;10.80;99.90;;;;;;4992139;28;20042;-67
2022/03/30 06:19:33;;;;;;;25.65;15.57;;;10.90;99.90;;;;;;4998606;28;20105;-67
2022/03/30 06:22:05;;;;;;;23.35;15.68;;;11.00;99.90;;;;;;5001790;28;20049;-66
2022/03/30 06:24:38;;;;;;;;;;;11.10;99.90;;;;;;4995204;28;20116;-67
2022/03/30 06:27:06;;;;;;;23.38;14.93;;;11.20;99.90;;;;;;4995460;28;20016;-67
2022/03/30 06:29:35;;;;;;;29.45;16.40;;;11.20;99.90;;;;;;4996653;28;20688;-66
2022/03/30 06:32:03;;;;;;;23.92;14.27;;;11.30;99.90;;;;;;4996601;28;20039;-67
2022/03/30 06:34:31;;;;;;;30.10;15.85;;;11.40;99.90;;;;;;4998164;28;20084;-65
2022/03/30 06:36:59;;;;;;;25.88;15.65;;;11.40;99.90;;;;;;4995855;28;20510;-66
2022/03/30 06:39:26;;;;;;;22.77;14.02;;;11.50;99.90;;;;;;4993280;28;20104;-67
2022/03/30 06:41:56;;;;;;;24.13;15.40;;;11.60;99.90;;;;;;4997681;28;20099;-67
2022/03/30 06:44:23;;;;;;;28.05;14.77;;;11.70;99.90;;;;;;4999364;28;20117;-66
2022/03/30 06:46:51;;;;;;;29.35;16.17;;;11.80;99.90;;;;;;5000314;28;20050;-66
2022/03/30 06:49:18;;;;;;;26.58;15.93;;;11.90;99.90;;;;;;5005820;28;20072;-67
2022/03/30 06:51:45;;;;;;;22.55;14.63;;;11.90;99.90;;;;;;5005939;28;20046;-67
2022/03/30 06:54:13;;;;;;;25.20;16.10;;;11.90;99.90;;;;;;5001136;28;20111;-67
2022/03/30 06:56:41;;;;;;;23.25;14.93;;;12.00;99.90;;;;;;5000879;28;20058;-66
2022/03/30 06:59:08;;;;;;;24.92;15.20;;;12.00;99.90;;;;;;4995569;28;20035;-65
2022/03/30 07:01:35;;;;;;;26.27;16.27;;;12.00;99.90;;;;;;4999467;28;20046;-66
2022/03/30 07:04:04;;;;;;;26.92;15.88;;;12.10;99.90;;;;;;4991577;28;20038;-66
2022/03/30 07:06:32;;;;;;;25.42;15.27;;;12.10;99.90;;;;;;4995343;28;20106;-65
2022/03/30 07:11:45;;;;;;;26.10;16.40;;;12.00;99.90;;;;;;4998976;28;20490;-66
2022/03/30 07:14:12;;;;;;;26.00;15.88;;;11.90;99.90;;;;;;4994781;28;20046;-66
2022/03/30 07:16:39;;;;;;;25.08;14.90;;;11.90;99.90;;;;;;4993145;28;20553;-67
2022/03/30 07:19:07;;;;;;;21.65;14.48;;;11.90;99.90;;;;;;4995120;28;20147;-67
2022/03/30 07:21:34;;;;;;;28.05;15.45;;;11.90;99.90;;;;;;4992254;28;20042;-67
2022/03/30 07:24:01;;;;;;;26.60;16.17;;;11.90;99.90;;;;;;5009631;28;20475;-66
2022/03/30 07:26:29;;;;;;;27.77;15.50;;;11.90;99.90;;;;;;4992781;28;20485;-65
2022/03/30 07:28:56;;;;;;;27.02;17.58;;;11.90;99.90;;;;;;4999748;28;20042;-66
2022/03/30 07:31:23;;;;;;;28.92;17.02;;;11.90;99.90;;;;;;5002500;28;20048;-66
2022/03/30 07:33:53;;;;;;;27.30;17.40;;;11.70;99.90;;;;;;4999389;28;20121;-66
2022/03/30 07:36:21;;;;;;;29.55;17.85;;;11.50;99.90;;;;;;4995735;28;20140;-66
2022/03/30 07:38:48;;;;;;;27.40;18.40;;;11.40;99.90;;;;;;5002625;28;20145;-66
2022/03/30 07:41:15;;;;;;;32.78;17.92;;;11.40;99.90;;;;;;5008964;28;20568;-66
2022/03/30 07:43:43;;;;;;;27.73;17.50;;;11.30;99.90;;;;;;4992583;28;20064;-67
2022/03/30 07:46:12;;;;;;;28.92;17.85;;;11.10;99.90;;;;;;4998354;28;20049;-66
2022/03/30 07:48:40;;;;;;;30.25;18.20;;;11.00;99.90;;;;;;4990296;28;20068;-66
2022/03/30 07:51:08;;;;;;;31.25;18.58;;;10.90;99.90;;;;;;4996968;28;20043;-65
2022/03/30 07:53:35;;;;;;;34.28;20.52;;;10.90;99.90;;;;;;4991173;28;20478;-65
2022/03/30 07:56:02;;;;;;;30.58;19.52;;;10.90;99.90;;;;;;4991220;28;20569;-65
2022/03/30 07:58:30;;;;;;;25.52;18.38;;;10.90;99.90;;;;;;4995785;28;20053;-66
2022/03/30 08:00:57;;;;;;;28.65;17.25;;;10.90;99.90;;;;;;4987973;28;20137;-65
2022/03/30 08:03:25;;;;;;;30.63;17.58;;;10.90;99.90;;;;;;5000201;28;20143;-68
2022/03/30 08:05:52;;;;;;;31.98;18.73;;;11.00;99.90;;;;;;4987095;28;20046;-65
2022/03/30 08:08:19;;;;;;;29.05;18.70;;;11.10;99.90;;;;;;5005844;28;20111;-65
2022/03/30 08:10:47;;;;;;;32.00;20.85;;;11.10;99.90;;;;;;4992398;28;20084;-67
2022/03/30 08:13:14;;;;;;;32.33;19.60;;;11.20;99.90;;;;;;4990418;28;20111;-67
2022/03/30 08:15:43;;;;;;;34.45;20.30;;;11.10;99.90;;;;;;4989920;28;20045;-66
2022/03/30 08:18:11;;;;;;;31.08;20.83;;;11.10;99.90;;;;;;4990680;28;20519;-66
2022/03/30 08:23:24;;;;;;;27.65;19.05;;;11.10;99.90;;;;;;4990921;28;20053;-66
2022/03/30 08:25:51;;;;;;;31.73;19.50;;;11.20;99.90;;;;;;4990848;28;20053;-66
2022/03/30 08:28:19;;;;;;;29.65;20.02;;;11.20;99.90;;;;;;4991172;28;20046;-67
2022/03/30 08:30:48;;;;;;;29.73;19.95;;;11.30;99.90;;;;;;4989024;28;20054;-66
2022/03/30 08:33:23;;;;;;;28.20;20.00;;;11.30;99.90;;;;;;4990542;28;20100;-66
2022/03/30 08:35:51;;;;;;;30.25;19.55;;;11.30;99.90;;;;;;4999110;28;20048;-67
2022/03/30 08:38:18;;;;;;;31.75;20.30;;;11.30;99.90;;;;;;4989251;28;20122;-67
2022/03/30 08:40:46;;;;;;;30.92;20.58;;;11.30;99.90;;;;;;4989687;28;20042;-67
2022/03/30 08:43:13;;;;;;;30.60;19.90;;;11.20;99.90;;;;;;4990862;28;20054;-67
2022/03/30 08:45:41;;;;;;;28.65;18.98;;;11.20;99.90;;;;;;4988099;28;20061;-66
2022/03/30 08:48:08;;;;;;;32.22;19.30;;;11.30;99.90;;;;;;4993220;28;20468;-66
2022/03/30 08:50:36;;;;;;;37.08;24.52;;;11.30;99.90;;;;;;4992426;28;20078;-66
2022/03/30 08:53:05;;;;;;;35.67;20.73;;;11.20;99.90;;;;;;4995002;28;20518;-66
2022/03/30 08:55:34;;;;;;;29.45;19.73;;;11.20;99.90;;;;;;4993472;28;20490;-67
2022/03/30 08:58:01;;;;;;;36.47;22.35;;;11.10;99.90;;;;;;4995326;28;20047;-66
2022/03/30 09:00:32;;;;;;;32.10;20.95;;;11.10;99.90;;;;;;5009676;28;20125;-65
2022/03/30 09:03:00;;;;;;;29.10;19.13;;;11.10;99.90;;;;;;4982597;28;20054;-66
2022/03/30 09:05:31;;;;;;;29.48;19.13;;;11.10;99.90;;;;;;4997441;28;20128;-67
2022/03/30 09:08:12;;;;;;;32.15;20.02;;;11.10;99.90;;;;;;4991371;28;20488;-66
2022/03/30 09:10:45;;;;;;;30.37;18.90;;;11.10;99.90;;;;;;4991255;28;20133;-66
2022/03/30 09:13:14;;;;;;;26.65;18.38;;;11.10;99.90;;;;;;4999404;28;20209;-66
2022/03/30 09:15:42;;;;;;;32.72;19.73;;;11.10;99.90;;;;;;4997357;28;20141;-66
2022/03/30 09:18:10;;;;;;;29.42;18.95;;;11.00;99.90;;;;;;4995157;28;20030;-66
2022/03/30 09:20:41;;;;;;;30.10;19.38;;;11.00;99.90;;;;;;4993966;28;20054;-66
2022/03/30 09:23:12;;;;;;;27.60;18.80;;;11.00;99.90;;;;;;4994828;28;20072;-67
2022/03/30 09:25:48;;;;;;;28.92;18.52;;;11.10;99.90;;;;;;4993233;28;20240;-67
2022/03/30 09:28:21;;;;;;;31.38;20.15;;;11.10;99.90;;;;;;4993779;28;20509;-66
2022/03/30 09:30:51;;;;;;;29.08;19.75;;;11.10;99.90;;;;;;4993686;28;20042;-67
2022/03/30 09:33:21;;;;;;;29.80;20.40;;;11.10;99.90;;;;;;4989524;28;20501;-67
2022/03/30 09:35:49;;;;;;;28.75;19.05;;;11.20;99.90;;;;;;5001000;28;20053;-67
2022/03/30 09:38:21;;;;;;;34.83;21.92;;;11.30;99.90;;;;;;4988700;28;20117;-67
2022/03/30 09:40:57;;;;;;;37.65;20.92;;;11.40;99.90;;;;;;4996869;28;20050;-67
2022/03/30 09:43:27;;;;;;;28.55;19.35;;;11.40;99.90;;;;;;4990743;28;20042;-67
2022/03/30 09:46:09;;;;;;;40.83;21.65;;;11.50;99.90;;;;;;4991138;28;20042;-67
2022/03/30 09:48:49;;;;;;;32.28;20.30;;;11.30;99.90;;;;;;4989993;28;20073;-67
2022/03/30 09:51:19;;;;;;;29.42;19.38;;;11.30;99.90;;;;;;4989374;28;20513;-67
2022/03/30 09:53:47;;;;;;;35.70;21.52;;;11.30;99.90;;;;;;4992010;28;20069;-67
2022/03/30 09:56:20;;;;;;;36.13;21.85;;;11.30;99.90;;;;;;4994073;28;20047;-67
2022/03/30 09:58:48;;;;;;;27.77;19.00;;;11.20;99.90;;;;;;4995467;28;20046;-67
2022/03/30 10:01:19;;;;;;;32.35;22.00;;;11.30;99.90;;;;;;4999422;28;20072;-67
2022/03/30 10:03:53;;;;;;;36.03;20.95;;;11.20;99.90;;;;;;5004136;28;20501;-67
2022/03/30 10:06:29;;;;;;;32.05;20.30;;;11.10;99.90;;;;;;5003118;28;20529;-67
2022/03/30 10:09:03;;;;;;;31.20;20.40;;;11.10;99.90;;;;;;4994181;28;20043;-67
2022/03/30 10:11:30;;;;;;;31.13;20.67;;;11.10;99.90;;;;;;4996782;28;20031;-67
2022/03/30 10:14:00;;;;;;;29.88;19.90;;;11.10;99.90;;;;;;4990021;28;20137;-67
2022/03/30 10:16:44;;;;;;;33.65;21.67;;;11.20;99.90;;;;;;4997479;28;20528;-66
2022/03/30 10:19:12;;;;;;;28.85;19.23;;;11.10;99.90;;;;;;4996158;28;20421;-67
2022/03/30 10:21:55;;;;;;;33.05;21.70;;;11.10;99.90;;;;;;4978963;28;20050;-67
2022/03/30 10:24:33;;;;;;;;;;;11.20;99.90;;;;;;5001674;28;20043;-67
2022/03/30 10:27:16;;;;;;;32.33;20.17;;;11.20;99.90;;;;;;4994814;28;20029;-67
2022/03/30 10:29:52;;;;;;;31.30;20.98;;;11.30;99.90;;;;;;4992121;28;20129;-67
2022/03/30 10:32:25;;;;;;;25.80;19.08;;;11.30;99.90;;;;;;4997830;28;20544;-67
2022/03/30 10:34:59;;;;;;;31.05;20.52;;;11.30;99.90;;;;;;4988310;28;20129;-66
2022/03/30 10:37:45;;;;;;;29.00;19.88;;;11.10;99.90;;;;;;4989363;28;20576;-66
2022/03/30 10:40:25;;;;;;;30.63;19.23;;;11.10;99.90;;;;;;4998665;28;20490;-67
2022/03/30 10:42:53;;;;;;;30.58;20.50;;;11.20;99.90;;;;;;4993190;28;20125;-67
2022/03/30 10:45:50;;;;;;;28.98;20.13;;;11.10;99.90;;;;;;4978437;28;20137;-67
2022/03/30 10:48:29;;;;;;;29.33;19.95;;;11.10;99.90;;;;;;5001837;28;20314;-67
2022/03/30 10:51:14;;;;;;;30.85;20.55;;;11.30;99.90;;;;;;4992417;28;20492;-67
2022/03/30 10:53:49;;;;;;;34.13;20.63;;;11.60;99.90;;;;;;5001162;28;20050;-67
2022/03/30 10:56:18;;;;;;;28.85;19.95;;;11.80;99.90;;;;;;4980506;28;20050;-67
2022/03/30 10:59:00;;;;;;;32.72;20.40;;;12.10;99.90;;;;;;4995801;28;20383;-68
2022/03/30 11:01:35;;;;;;;30.08;20.50;;;12.30;99.90;;;;;;5001194;28;20666;-67
2022/03/30 11:04:18;;;;;;;29.63;20.50;;;12.30;99.90;;;;;;5009158;28;20497;-68
2022/03/30 11:06:54;;;;;;;32.30;21.23;;;12.20;99.90;;;;;;5002623;28;20042;-68
2022/03/30 11:09:30;;;;;;;25.48;19.63;;;12.20;99.90;;;;;;4993693;28;20049;-68
2022/03/30 11:12:10;;;;;;;28.65;20.63;;;12.40;99.90;;;;;;5010082;28;20069;-68
2022/03/30 11:14:43;;;;;;;29.60;19.88;;;12.60;99.90;;;;;;4989083;28;20046;-68
2022/03/30 11:17:40;;;;;;;25.70;19.45;;;12.90;99.90;;;;;;4958699;28;20359;-68
2022/03/30 11:20:09;;;;;;;26.05;19.50;;;13.20;99.90;;;;;;4961528;28;20062;-67
2022/03/30 11:22:41;;;;;;;28.35;19.52;;;13.40;99.90;;;;;;4992565;28;20132;-68
2022/03/30 11:25:14;;;;;;;25.58;18.02;;;13.20;99.90;;;;;;4999209;28;20072;-68
2022/03/30 11:27:41;;;;;;;30.73;19.17;;;13.10;99.90;;;;;;5009377;28;20489;-67
2022/03/30 11:30:16;;;;;;;27.02;20.25;;;13.00;99.90;;;;;;5004617;28;20132;-67
2022/03/30 11:32:50;;;;;;;27.15;18.27;;;12.80;99.90;;;;;;4995745;28;20050;-67
2022/03/30 11:35:20;;;;;;;43.78;30.27;;;12.70;99.90;;;;;;4992633;28;20037;-68
2022/03/30 11:37:58;;;;;;;34.55;23.80;;;12.60;99.90;;;;;;4992941;28;20126;-67
2022/03/30 11:40:26;;;;;;;28.05;19.20;;;12.50;99.90;;;;;;4989064;28;20073;-67
2022/03/30 11:42:58;;;;;;;25.27;18.23;;;12.60;99.90;;;;;;4989237;28;20080;-67
2022/03/30 11:45:44;;;;;;;30.25;19.75;;;12.60;99.90;;;;;;4991281;28;20263;-67
2022/03/30 11:48:13;;;;;;;27.00;19.13;;;12.80;99.90;;;;;;4988953;28;20085;-67
2022/03/30 11:50:42;;;;;;;28.67;19.83;;;12.90;99.90;;;;;;4993089;28;20435;-67
2022/03/30 11:53:12;;;;;;;28.73;19.08;;;13.10;99.90;;;;;;4978890;28;20049;-67
2022/03/30 11:55:59;;;;;;;27.95;18.77;;;13.30;99.90;;;;;;4991614;28;20470;-67
2022/03/30 11:58:43;;;;;;;26.20;19.40;;;13.30;99.90;;;;;;4994656;28;20125;-67
2022/03/30 12:01:13;;;;;;;27.25;18.20;;;13.30;99.90;;;;;;4976957;28;20054;-67
2022/03/30 12:03:42;;;;;;;23.45;16.73;;;13.60;99.90;;;;;;4997297;28;20142;-68
2022/03/30 12:06:11;;;;;;;28.55;19.00;;;13.90;99.90;;;;;;4991329;28;20089;-67
2022/03/30 12:08:44;;;;;;;29.35;17.73;;;13.90;99.90;;;;;;4994683;28;20050;-67
2022/03/30 12:11:12;;;;;;;26.33;16.73;;;13.90;99.90;;;;;;5008963;28;20042;-67
2022/03/30 12:13:39;;;;;;;24.35;17.23;;;13.70;99.90;;;;;;5010266;28;20144;-67
2022/03/30 12:16:15;;;;;;;28.20;17.20;;;13.60;99.90;;;;;;4972099;28;20102;-68
2022/03/30 12:18:50;;;;;;;26.02;16.17;;;13.40;99.90;;;;;;4982904;28;20058;-67
2022/03/30 12:21:27;;;;;;;25.00;17.17;;;13.20;99.90;;;;;;4995320;28;20220;-68
2022/03/30 12:24:14;;;;;;;24.70;16.90;;;13.00;99.90;;;;;;4998372;28;20037;-67
2022/03/30 12:26:51;;;;;;;27.15;17.23;;;12.80;99.90;;;;;;5002542;28;20113;-68
2022/03/30 12:29:19;;;;;;;26.33;16.50;;;12.60;99.90;;;;;;4990477;28;20085;-69
2022/03/30 12:31:57;;;;;;;34.17;17.92;;;12.30;99.90;;;;;;4975666;28;20058;-67
2022/03/30 12:34:26;;;;;;;30.33;17.90;;;12.20;99.90;;;;;;4993928;28;20034;-67
2022/03/30 12:36:58;;;;;;;24.65;17.27;;;12.00;99.90;;;;;;4978760;28;20073;-68
2022/03/30 12:39:29;;;;;;;25.50;17.20;;;12.00;99.90;;;;;;4990912;28;20042;-68
2022/03/30 12:42:01;;;;;;;28.48;18.50;;;11.80;99.90;;;;;;5003449;28;20149;-67
2022/03/30 12:44:34;;;;;;;26.77;18.08;;;11.70;99.90;;;;;;4991924;28;20042;-67
2022/03/30 12:47:03;;;;;;;25.23;18.23;;;11.40;99.90;;;;;;4990949;28;20064;-68
2022/03/30 12:49:35;;;;;;;27.75;19.50;;;11.30;99.90;;;;;;4988302;28;20146;-67